createdAt,value
2023-02-15T00:00:06.809Z,2.37
2023-02-15T00:01:06.758Z,2.36
2023-02-15T00:02:09.867Z,2.36
2023-02-15T00:03:06.959Z,2.33
2023-02-15T00:04:06.781Z,2.34
2023-02-15T00:05:06.744Z,2.4
2023-02-15T00:06:07.107Z,2.32
2023-02-15T00:07:06.773Z,2.34
2023-02-15T00:08:06.626Z,2.32
2023-02-15T00:09:06.773Z,2.16
2023-02-15T00:10:06.763Z,2.25
2023-02-15T00:11:06.772Z,2.28
2023-02-15T00:12:06.769Z,2.22
2023-02-15T00:13:09.820Z,2.21
2023-02-15T00:14:06.608Z,2.16
2023-02-15T00:15:06.788Z,2.26
2023-02-15T00:16:07.331Z,2.19
2023-02-15T00:17:06.782Z,2.23
2023-02-15T00:18:06.801Z,2.21
2023-02-15T00:19:06.783Z,2.15
2023-02-15T00:20:06.778Z,2.16
2023-02-15T00:21:06.812Z,2.21
2023-02-15T00:22:06.809Z,2.12
2023-02-15T00:23:06.796Z,2.19
2023-02-15T00:24:09.942Z,2.22
2023-02-15T00:25:09.344Z,2.15
2023-02-15T00:26:07.080Z,2.14
2023-02-15T00:27:06.795Z,2.08
2023-02-15T00:28:06.844Z,2.15
2023-02-15T00:29:06.791Z,2.14
2023-02-15T00:30:07.068Z,2.16
2023-02-15T00:31:07.065Z,2.16
2023-02-15T00:32:06.868Z,2.23
2023-02-15T00:33:07.274Z,2.16
2023-02-15T00:34:07.038Z,2.18
2023-02-15T00:35:06.824Z,2.3
2023-02-15T00:36:07.007Z,2.21
2023-02-15T00:37:06.808Z,2.21
2023-02-15T00:38:06.841Z,2.1
2023-02-15T00:39:06.800Z,2.23
2023-02-15T00:40:06.810Z,2.19
2023-02-15T00:41:06.833Z,2.25
2023-02-15T00:42:06.806Z,2.21
2023-02-15T00:43:06.828Z,2.32
2023-02-15T00:44:09.798Z,2.3
2023-02-15T00:45:06.824Z,2.22
2023-02-15T00:46:07.617Z,2.26
2023-02-15T00:47:06.845Z,2.19
2023-02-15T00:48:06.948Z,2.16
2023-02-15T00:49:06.850Z,2.08
2023-02-15T00:50:06.858Z,2.18
2023-02-15T00:51:06.864Z,2.08
2023-02-15T00:52:06.832Z,2.12
2023-02-15T00:53:06.841Z,2.16
2023-02-15T00:54:06.901Z,2.12
2023-02-15T00:55:06.990Z,2.03
2023-02-15T00:56:10.360Z,2.1
2023-02-15T00:57:06.819Z,2.07
2023-02-15T00:58:06.872Z,2.08
2023-02-15T00:59:06.889Z,2.07
2023-02-15T01:00:06.847Z,2.1
2023-02-15T01:01:06.992Z,2.08
2023-02-15T01:02:06.847Z,2.1
2023-02-15T01:03:06.883Z,2.14
2023-02-15T01:04:06.920Z,2.04
2023-02-15T01:05:06.874Z,2.16
2023-02-15T01:06:07.390Z,2.12
2023-02-15T01:07:09.699Z,2.14
2023-02-15T01:08:06.909Z,2.08
2023-02-15T01:09:06.852Z,2.01
2023-02-15T01:10:06.853Z,2.05
2023-02-15T01:11:06.853Z,2.03
2023-02-15T01:12:06.893Z,2.07
2023-02-15T01:13:06.886Z,2.08
2023-02-15T01:14:06.858Z,2.08
2023-02-15T01:15:07.051Z,1.93
2023-02-15T01:16:08.012Z,2.05
2023-02-15T01:17:06.871Z,2.04
2023-02-15T01:18:10.840Z,1.97
2023-02-15T01:19:06.914Z,1.93
2023-02-15T01:20:06.929Z,1.85
2023-02-15T01:21:06.924Z,2
2023-02-15T01:22:06.888Z,1.97
2023-02-15T01:23:06.968Z,1.93
2023-02-15T01:24:06.912Z,2.03
2023-02-15T01:25:06.864Z,2
2023-02-15T01:26:07.450Z,2
2023-02-15T01:27:06.926Z,1.97
2023-02-15T01:28:06.933Z,1.95
2023-02-15T01:29:07.181Z,1.98
2023-02-15T01:30:07.057Z,1.97
2023-02-15T01:31:07.154Z,2.01
2023-02-15T01:32:07.305Z,1.97
2023-02-15T01:33:06.944Z,1.86
2023-02-15T01:34:06.874Z,2
2023-02-15T01:35:06.949Z,1.89
2023-02-15T01:36:07.451Z,1.97
2023-02-15T01:37:06.946Z,1.92
2023-02-15T01:38:06.938Z,1.95
2023-02-15T01:39:06.900Z,1.89
2023-02-15T01:40:10.038Z,1.93
2023-02-15T01:41:06.947Z,1.95
2023-02-15T01:42:06.901Z,1.88
2023-02-15T01:43:06.938Z,1.97
2023-02-15T01:44:06.935Z,2
2023-02-15T01:45:09.765Z,2
2023-02-15T01:46:07.620Z,1.98
2023-02-15T01:47:06.913Z,1.93
2023-02-15T01:48:07.013Z,1.97
2023-02-15T01:49:06.928Z,1.97
2023-02-15T01:50:06.955Z,1.84
2023-02-15T01:51:10.923Z,1.86
2023-02-15T01:52:06.952Z,1.92
2023-02-15T01:53:06.971Z,1.86
2023-02-15T01:54:06.977Z,1.81
2023-02-15T01:55:09.536Z,1.78
2023-02-15T01:56:10.002Z,1.75
2023-02-15T01:57:06.934Z,1.88
2023-02-15T01:58:07.011Z,1.64
2023-02-15T01:59:06.946Z,1.71
2023-02-15T02:00:06.947Z,1.75
2023-02-15T02:01:07.065Z,1.66
2023-02-15T02:02:09.717Z,1.63
2023-02-15T02:03:07.187Z,1.68
2023-02-15T02:04:06.930Z,1.67
2023-02-15T02:05:06.949Z,1.67
2023-02-15T02:06:07.394Z,1.57
2023-02-15T02:07:09.815Z,1.75
2023-02-15T02:08:06.984Z,1.7
2023-02-15T02:09:07.062Z,1.82
2023-02-15T02:10:06.992Z,1.74
2023-02-15T02:11:06.950Z,1.68
2023-02-15T02:12:06.961Z,1.79
2023-02-15T02:13:06.973Z,1.71
2023-02-15T02:14:06.990Z,1.68
2023-02-15T02:15:06.990Z,1.68
2023-02-15T02:16:07.742Z,1.76
2023-02-15T02:17:06.957Z,1.76
2023-02-15T02:18:09.817Z,1.64
2023-02-15T02:19:06.957Z,1.61
2023-02-15T02:20:07.025Z,1.63
2023-02-15T02:21:06.982Z,1.61
2023-02-15T02:22:06.947Z,1.61
2023-02-15T02:23:07.041Z,1.64
2023-02-15T02:24:06.990Z,1.61
2023-02-15T02:25:07.006Z,1.48
2023-02-15T02:26:07.354Z,1.57
2023-02-15T02:27:06.972Z,1.45
2023-02-15T02:28:06.989Z,1.4
2023-02-15T02:29:09.845Z,1.38
2023-02-15T02:30:07.246Z,1.46
2023-02-15T02:31:07.387Z,1.48
2023-02-15T02:32:07.291Z,1.45
2023-02-15T02:33:07.040Z,1.39
2023-02-15T02:34:06.999Z,1.45
2023-02-15T02:35:07.021Z,1.4
2023-02-15T02:36:07.452Z,1.48
2023-02-15T02:37:06.990Z,1.31
2023-02-15T02:38:07.026Z,1.38
2023-02-15T02:39:07.082Z,1.31
2023-02-15T02:40:09.782Z,1.43
2023-02-15T02:41:07.151Z,1.32
2023-02-15T02:42:07.048Z,1.36
2023-02-15T02:43:07.014Z,1.3
2023-02-15T02:44:06.990Z,1.3
2023-02-15T02:45:07.002Z,1.25
2023-02-15T02:46:07.666Z,1.39
2023-02-15T02:47:06.992Z,1.43
2023-02-15T02:48:07.094Z,1.34
2023-02-15T02:49:07.011Z,1.36
2023-02-15T02:50:07.029Z,1.31
2023-02-15T02:51:10.041Z,1.27
2023-02-15T02:52:07.015Z,1.28
2023-02-15T02:53:07.015Z,1.27
2023-02-15T02:54:07.004Z,1.32
2023-02-15T02:55:07.067Z,1.3
2023-02-15T02:56:07.557Z,1.27
2023-02-15T02:57:07.047Z,1.34
2023-02-15T02:58:07.037Z,1.46
2023-02-15T02:59:07.059Z,1.34
2023-02-15T03:00:07.067Z,1.46
2023-02-15T03:01:07.086Z,1.48
2023-02-15T03:02:07.202Z,1.4
2023-02-15T03:03:07.170Z,1.38
2023-02-15T03:04:07.089Z,1.32
2023-02-15T03:05:07.311Z,1.36
2023-02-15T03:06:07.467Z,1.32
2023-02-15T03:07:07.042Z,1.48
2023-02-15T03:08:07.080Z,1.4
2023-02-15T03:09:07.044Z,1.38
2023-02-15T03:10:07.041Z,1.45
2023-02-15T03:11:07.139Z,1.28
2023-02-15T03:12:07.074Z,1.34
2023-02-15T03:13:07.097Z,1.38
2023-02-15T03:14:07.056Z,1.4
2023-02-15T03:15:07.078Z,1.39
2023-02-15T03:16:07.572Z,1.38
2023-02-15T03:17:07.059Z,1.48
2023-02-15T03:18:07.062Z,1.39
2023-02-15T03:19:07.118Z,1.36
2023-02-15T03:20:07.072Z,1.34
2023-02-15T03:21:07.100Z,1.4
2023-02-15T03:22:07.229Z,1.34
2023-02-15T03:23:09.877Z,1.42
2023-02-15T03:24:08.087Z,1.42
2023-02-15T03:25:07.061Z,1.39
2023-02-15T03:26:07.634Z,1.39
2023-02-15T03:27:07.109Z,1.5
2023-02-15T03:28:08.092Z,1.46
2023-02-15T03:29:07.102Z,1.43
2023-02-15T03:30:07.301Z,1.48
2023-02-15T03:31:07.540Z,1.32
2023-02-15T03:32:07.353Z,1.42
2023-02-15T03:33:07.097Z,1.46
2023-02-15T03:34:10.145Z,1.42
2023-02-15T03:35:07.079Z,1.4
2023-02-15T03:36:07.523Z,1.39
2023-02-15T03:37:10.418Z,1.39
2023-02-15T03:38:07.100Z,1.4
2023-02-15T03:39:07.100Z,1.4
2023-02-15T03:40:07.098Z,1.49
2023-02-15T03:41:07.100Z,1.56
2023-02-15T03:42:07.106Z,1.52
2023-02-15T03:43:07.151Z,1.48
2023-02-15T03:44:07.271Z,1.49
2023-02-15T03:45:10.192Z,1.5
2023-02-15T03:46:07.558Z,1.43
2023-02-15T03:47:07.200Z,1.45
2023-02-15T03:48:07.097Z,1.43
2023-02-15T03:49:07.088Z,1.56
2023-02-15T03:50:07.136Z,1.53
2023-02-15T03:51:07.132Z,1.49
2023-02-15T03:52:07.124Z,1.58
2023-02-15T03:53:07.209Z,1.48
2023-02-15T03:54:07.146Z,1.6
2023-02-15T03:55:07.108Z,1.43
2023-02-15T03:56:10.276Z,1.49
2023-02-15T03:57:07.133Z,1.5
2023-02-15T03:58:07.106Z,1.49
2023-02-15T03:59:07.181Z,1.46
2023-02-15T04:00:07.222Z,1.43
2023-02-15T04:01:07.278Z,1.43
2023-02-15T04:02:07.152Z,1.4
2023-02-15T04:03:07.432Z,1.43
2023-02-15T04:04:07.127Z,1.46
2023-02-15T04:05:07.100Z,1.49
2023-02-15T04:06:07.512Z,1.43
2023-02-15T04:07:10.176Z,1.46
2023-02-15T04:08:07.148Z,1.46
2023-02-15T04:09:07.158Z,1.48
2023-02-15T04:10:07.134Z,1.46
2023-02-15T04:11:07.135Z,1.52
2023-02-15T04:12:07.125Z,1.5
2023-02-15T04:13:07.165Z,1.53
2023-02-15T04:14:07.165Z,1.42
2023-02-15T04:15:07.229Z,1.45
2023-02-15T04:16:09.384Z,1.39
2023-02-15T04:17:07.209Z,1.39
2023-02-15T04:18:09.989Z,1.46
2023-02-15T04:19:07.163Z,1.39
2023-02-15T04:20:07.153Z,1.48
2023-02-15T04:21:07.161Z,1.4
2023-02-15T04:22:07.154Z,1.43
2023-02-15T04:23:10.241Z,1.32
2023-02-15T04:24:07.177Z,1.27
2023-02-15T04:25:07.163Z,1.3
2023-02-15T04:26:07.440Z,1.34
2023-02-15T04:27:07.183Z,1.36
2023-02-15T04:28:07.181Z,1.32
2023-02-15T04:29:10.285Z,1.32
2023-02-15T04:30:07.336Z,1.38
2023-02-15T04:31:07.333Z,1.36
2023-02-15T04:32:07.457Z,1.28
2023-02-15T04:33:07.179Z,1.28
2023-02-15T04:34:10.069Z,1.27
2023-02-15T04:35:07.199Z,1.34
2023-02-15T04:36:07.558Z,1.25
2023-02-15T04:37:07.165Z,1.22
2023-02-15T04:38:07.184Z,1.24
2023-02-15T04:39:07.202Z,1.18
2023-02-15T04:40:10.215Z,1.2
2023-02-15T04:41:07.177Z,1.14
2023-02-15T04:42:07.190Z,1.24
2023-02-15T04:43:07.344Z,1.28
2023-02-15T04:44:07.201Z,1.22
2023-02-15T04:45:10.019Z,1.25
2023-02-15T04:46:08.204Z,1.25
2023-02-15T04:47:07.246Z,1.25
2023-02-15T04:48:07.193Z,1.24
2023-02-15T04:49:07.226Z,1.24
2023-02-15T04:50:07.197Z,1.24
2023-02-15T04:51:07.196Z,1.31
2023-02-15T04:52:07.211Z,1.27
2023-02-15T04:53:07.198Z,1.24
2023-02-15T04:54:07.208Z,1.18
2023-02-15T04:55:07.191Z,1.24
2023-02-15T04:56:10.225Z,1.16
2023-02-15T04:57:07.342Z,1.16
2023-02-15T04:58:07.219Z,1.24
2023-02-15T04:59:07.291Z,1.12
2023-02-15T05:00:07.217Z,1.18
2023-02-15T05:01:07.374Z,1.13
2023-02-15T05:02:07.228Z,1.13
2023-02-15T05:03:07.300Z,1.06
2023-02-15T05:04:07.470Z,1.04
2023-02-15T05:05:07.249Z,1
2023-02-15T05:06:07.634Z,0.96
2023-02-15T05:07:10.196Z,0.96
2023-02-15T05:08:07.232Z,1
2023-02-15T05:09:07.214Z,0.96
2023-02-15T05:10:07.247Z,1.02
2023-02-15T05:11:07.269Z,0.99
2023-02-15T05:12:07.240Z,1.02
2023-02-15T05:13:07.284Z,1.06
2023-02-15T05:14:07.227Z,0.99
2023-02-15T05:15:07.218Z,1.13
2023-02-15T05:16:07.758Z,1.14
2023-02-15T05:17:07.244Z,1.09
2023-02-15T05:18:10.342Z,1.12
2023-02-15T05:19:07.224Z,1.13
2023-02-15T05:20:07.241Z,1.06
2023-02-15T05:21:07.286Z,0.99
2023-02-15T05:22:07.268Z,1
2023-02-15T05:23:07.248Z,0.95
2023-02-15T05:24:07.288Z,0.96
2023-02-15T05:25:07.244Z,0.92
2023-02-15T05:26:07.672Z,0.92
2023-02-15T05:27:07.260Z,0.94
2023-02-15T05:28:09.704Z,0.94
2023-02-15T05:29:07.272Z,0.88
2023-02-15T05:30:07.739Z,0.85
2023-02-15T05:31:08.099Z,0.86
2023-02-15T05:32:08.024Z,0.89
2023-02-15T05:33:07.262Z,0.92
2023-02-15T05:34:07.380Z,0.84
2023-02-15T05:35:07.274Z,1.02
2023-02-15T05:36:09.161Z,0.91
2023-02-15T05:37:07.463Z,0.89
2023-02-15T05:38:07.303Z,0.85
2023-02-15T05:39:07.273Z,0.89
2023-02-15T05:40:07.328Z,0.95
2023-02-15T05:41:07.280Z,0.88
2023-02-15T05:42:07.301Z,0.91
2023-02-15T05:43:07.294Z,0.94
2023-02-15T05:44:07.290Z,0.94
2023-02-15T05:45:07.443Z,1.02
2023-02-15T05:46:08.235Z,1
2023-02-15T05:47:07.291Z,1.09
2023-02-15T05:48:07.304Z,1.04
2023-02-15T05:49:07.301Z,1.02
2023-02-15T05:50:10.450Z,1.1
2023-02-15T05:51:07.310Z,1.1
2023-02-15T05:52:07.339Z,1.09
2023-02-15T05:53:07.386Z,1.09
2023-02-15T05:54:07.328Z,1.07
2023-02-15T05:55:07.334Z,1.14
2023-02-15T05:56:07.928Z,1.06
2023-02-15T05:57:07.318Z,1.16
2023-02-15T05:58:07.303Z,1.06
2023-02-15T05:59:07.420Z,1.02
2023-02-15T06:00:07.367Z,1.06
2023-02-15T06:01:10.194Z,0.96
2023-02-15T06:02:07.504Z,0.96
2023-02-15T06:03:07.467Z,0.96
2023-02-15T06:04:07.313Z,0.96
2023-02-15T06:05:07.353Z,0.96
2023-02-15T06:06:07.858Z,0.91
2023-02-15T06:07:07.314Z,1.06
2023-02-15T06:08:10.244Z,1
2023-02-15T06:09:07.359Z,0.91
2023-02-15T06:10:07.369Z,0.89
2023-02-15T06:11:07.358Z,0.94
2023-02-15T06:12:10.375Z,0.92
2023-02-15T06:13:07.340Z,0.92
2023-02-15T06:14:07.378Z,0.85
2023-02-15T06:15:07.359Z,0.89
2023-02-15T06:16:08.276Z,0.95
2023-02-15T06:17:07.336Z,0.88
2023-02-15T06:18:07.421Z,0.92
2023-02-15T06:19:07.368Z,0.94
2023-02-15T06:20:07.361Z,0.89
2023-02-15T06:21:07.340Z,0.84
2023-02-15T06:22:07.440Z,0.85
2023-02-15T06:23:10.150Z,0.85
2023-02-15T06:24:07.377Z,0.94
2023-02-15T06:25:07.410Z,0.88
2023-02-15T06:26:07.788Z,0.89
2023-02-15T06:27:07.332Z,0.85
2023-02-15T06:28:07.366Z,0.96
2023-02-15T06:29:07.353Z,0.86
2023-02-15T06:30:07.528Z,0.95
2023-02-15T06:31:07.905Z,0.99
2023-02-15T06:32:07.759Z,0.99
2023-02-15T06:33:07.384Z,1.06
2023-02-15T06:34:10.475Z,1.03
2023-02-15T06:35:07.399Z,0.96
2023-02-15T06:36:07.801Z,1.04
2023-02-15T06:37:07.370Z,0.94
2023-02-15T06:38:08.996Z,0.94
2023-02-15T06:39:07.378Z,1.03
2023-02-15T06:40:08.621Z,1.03
2023-02-15T06:41:08.412Z,1.02
2023-02-15T06:42:07.398Z,0.96
2023-02-15T06:43:07.392Z,0.86
2023-02-15T06:44:07.388Z,0.92
2023-02-15T06:45:10.592Z,0.99
2023-02-15T06:46:08.381Z,0.91
2023-02-15T06:47:07.451Z,0.85
2023-02-15T06:48:07.380Z,0.99
2023-02-15T06:49:07.373Z,0.94
2023-02-15T06:50:11.098Z,0.91
2023-02-15T06:51:07.392Z,0.92
2023-02-15T06:52:07.389Z,0.88
2023-02-15T06:53:07.263Z,0.95
2023-02-15T06:54:07.441Z,1.02
2023-02-15T06:55:07.087Z,0.91
2023-02-15T06:56:10.594Z,0.88
2023-02-15T06:57:07.430Z,0.86
2023-02-15T06:58:07.397Z,0.84
2023-02-15T06:59:07.435Z,0.96
2023-02-15T07:00:07.422Z,0.76
2023-02-15T07:01:10.638Z,0.77
2023-02-15T07:02:07.410Z,0.82
2023-02-15T07:03:07.472Z,0.89
2023-02-15T07:04:07.398Z,0.81
2023-02-15T07:05:07.733Z,0.89
2023-02-15T07:06:07.626Z,0.86
2023-02-15T07:07:10.230Z,0.86
2023-02-15T07:08:07.451Z,0.82
2023-02-15T07:09:07.412Z,0.86
2023-02-15T07:10:07.482Z,0.86
2023-02-15T07:11:07.412Z,0.95
2023-02-15T07:12:10.528Z,0.92
2023-02-15T07:13:07.424Z,0.81
2023-02-15T07:14:07.412Z,0.76
2023-02-15T07:15:07.454Z,0.84
2023-02-15T07:16:08.055Z,0.91
2023-02-15T07:17:27.398Z,0.91
2023-02-15T07:18:07.414Z,0.92
2023-02-15T07:19:07.467Z,0.86
2023-02-15T07:20:07.473Z,0.94
2023-02-15T07:21:07.450Z,0.92
2023-02-15T07:22:07.452Z,0.86
2023-02-15T07:23:10.278Z,0.88
2023-02-15T07:24:07.443Z,0.94
2023-02-15T07:25:07.471Z,0.89
2023-02-15T07:26:07.919Z,0.88
2023-02-15T07:27:07.440Z,0.88
2023-02-15T07:28:07.462Z,1
2023-02-15T07:29:07.448Z,1.21
2023-02-15T07:30:07.629Z,1.18
2023-02-15T07:31:07.603Z,1.53
2023-02-15T07:32:07.637Z,1.95
2023-02-15T07:33:10.091Z,1.6
2023-02-15T07:34:10.229Z,1.45
2023-02-15T07:35:07.463Z,1.4
2023-02-15T07:36:08.134Z,1.39
2023-02-15T07:37:07.483Z,1.32
2023-02-15T07:38:07.478Z,1.07
2023-02-15T07:39:07.504Z,1.09
2023-02-15T07:40:07.476Z,1.13
2023-02-15T07:41:07.461Z,1.12
2023-02-15T07:42:07.538Z,1.1
2023-02-15T07:43:07.580Z,0.99
2023-02-15T07:44:07.585Z,1.07
2023-02-15T07:45:09.039Z,1.07
2023-02-15T07:46:07.990Z,1.06
2023-02-15T07:47:07.515Z,1.04
2023-02-15T07:48:07.523Z,1
2023-02-15T07:49:07.467Z,0.96
2023-02-15T07:50:08.582Z,1.02
2023-02-15T07:51:07.466Z,1.07
2023-02-15T07:52:07.484Z,1.02
2023-02-15T07:53:08.517Z,1.03
2023-02-15T07:54:07.616Z,1.02
2023-02-15T07:55:07.526Z,1.06
2023-02-15T07:56:07.913Z,1.09
2023-02-15T07:57:07.488Z,1.1
2023-02-15T07:58:07.357Z,1.12
2023-02-15T07:59:07.480Z,1.13
2023-02-15T08:00:07.570Z,1.06
2023-02-15T08:01:07.511Z,1.06
2023-02-15T08:02:07.469Z,1.25
2023-02-15T08:03:07.891Z,1.2
2023-02-15T08:04:07.733Z,1.06
2023-02-15T08:05:07.534Z,1.2
2023-02-15T08:06:07.955Z,1.09
2023-02-15T08:07:07.502Z,1.1
2023-02-15T08:08:07.570Z,0.99
2023-02-15T08:09:07.504Z,1.02
2023-02-15T08:10:07.380Z,0.99
2023-02-15T08:11:07.526Z,0.99
2023-02-15T08:12:07.508Z,0.94
2023-02-15T08:13:07.512Z,0.92
2023-02-15T08:14:07.782Z,0.94
2023-02-15T08:15:07.614Z,0.99
2023-02-15T08:16:08.458Z,0.96
2023-02-15T08:17:10.307Z,0.95
2023-02-15T08:18:07.523Z,1.02
2023-02-15T08:19:07.581Z,1
2023-02-15T08:20:07.416Z,0.99
2023-02-15T08:21:07.392Z,0.96
2023-02-15T08:22:07.528Z,1.02
2023-02-15T08:23:07.569Z,0.99
2023-02-15T08:24:07.359Z,1.07
2023-02-15T08:25:07.551Z,0.91
2023-02-15T08:26:07.944Z,0.99
2023-02-15T08:27:10.313Z,1
2023-02-15T08:28:10.349Z,0.99
2023-02-15T08:29:07.565Z,1.09
2023-02-15T08:30:07.974Z,1
2023-02-15T08:31:08.326Z,0.99
2023-02-15T08:32:08.161Z,1.03
2023-02-15T08:33:07.664Z,1.09
2023-02-15T08:34:07.605Z,1.13
2023-02-15T08:35:07.562Z,1.13
2023-02-15T08:36:07.557Z,1.09
2023-02-15T08:37:07.598Z,1.16
2023-02-15T08:38:07.562Z,1.27
2023-02-15T08:39:10.676Z,1.24
2023-02-15T08:40:07.556Z,1.25
2023-02-15T08:41:07.963Z,1.25
2023-02-15T08:42:07.696Z,1.25
2023-02-15T08:43:07.576Z,1.3
2023-02-15T08:44:07.560Z,1.25
2023-02-15T08:45:07.612Z,1.31
2023-02-15T08:46:07.911Z,1.31
2023-02-15T08:47:07.584Z,1.24
2023-02-15T08:48:07.839Z,1.31
2023-02-15T08:49:07.604Z,1.25
2023-02-15T08:50:10.388Z,1.2
2023-02-15T08:51:08.036Z,1.04
2023-02-15T08:52:07.571Z,1.13
2023-02-15T08:53:08.596Z,1.14
2023-02-15T08:54:08.608Z,1.18
2023-02-15T08:55:07.581Z,1.27
2023-02-15T08:56:07.580Z,1.12
2023-02-15T08:57:07.566Z,1.14
2023-02-15T08:58:07.641Z,1.16
2023-02-15T08:59:07.606Z,1.27
2023-02-15T09:00:07.579Z,1.22
2023-02-15T09:01:11.347Z,1.25
2023-02-15T09:02:07.730Z,1.21
2023-02-15T09:03:07.616Z,1.27
2023-02-15T09:04:07.650Z,1.38
2023-02-15T09:05:07.667Z,1.34
2023-02-15T09:06:07.697Z,1.28
2023-02-15T09:07:07.601Z,1.38
2023-02-15T09:08:07.631Z,1.38
2023-02-15T09:09:07.616Z,1.43
2023-02-15T09:10:07.624Z,1.31
2023-02-15T09:11:08.232Z,1.25
2023-02-15T09:12:08.681Z,1.28
2023-02-15T09:13:07.599Z,1.32
2023-02-15T09:14:07.617Z,1.42
2023-02-15T09:15:07.597Z,1.36
2023-02-15T09:16:07.772Z,1.31
2023-02-15T09:17:08.172Z,1.24
2023-02-15T09:18:07.539Z,1.24
2023-02-15T09:19:07.619Z,1.36
2023-02-15T09:20:07.737Z,1.3
2023-02-15T09:21:08.128Z,1.39
2023-02-15T09:22:07.643Z,1.34
2023-02-15T09:23:18.907Z,1.42
2023-02-15T09:24:07.654Z,1.4
2023-02-15T09:25:07.619Z,1.39
2023-02-15T09:26:07.671Z,1.4
2023-02-15T09:27:07.639Z,1.53
2023-02-15T09:28:13.310Z,1.43
2023-02-15T09:29:07.632Z,1.58
2023-02-15T09:30:07.809Z,1.6
2023-02-15T09:31:08.321Z,1.63
2023-02-15T09:32:07.889Z,1.53
2023-02-15T09:33:07.705Z,1.63
2023-02-15T09:34:10.686Z,1.61
2023-02-15T09:35:07.528Z,1.48
2023-02-15T09:36:07.681Z,1.43
2023-02-15T09:37:07.657Z,1.57
2023-02-15T09:38:07.626Z,1.66
2023-02-15T09:39:10.600Z,1.68
2023-02-15T09:40:07.638Z,1.71
2023-02-15T09:41:08.085Z,1.6
2023-02-15T09:42:07.670Z,1.64
2023-02-15T09:43:07.646Z,1.66
2023-02-15T09:44:07.666Z,1.64
2023-02-15T09:45:07.784Z,1.68
2023-02-15T09:46:07.917Z,1.64
2023-02-15T09:47:07.666Z,1.7
2023-02-15T09:48:07.368Z,1.79
2023-02-15T09:49:07.707Z,1.76
2023-02-15T09:50:10.651Z,1.85
2023-02-15T09:51:08.166Z,1.81
2023-02-15T09:52:07.914Z,1.88
2023-02-15T09:53:10.685Z,1.84
2023-02-15T09:54:07.696Z,1.86
2023-02-15T09:55:07.666Z,1.86
2023-02-15T09:56:07.716Z,1.81
2023-02-15T09:57:07.695Z,1.92
2023-02-15T09:58:07.688Z,1.89
2023-02-15T09:59:08.687Z,1.84
2023-02-15T10:00:07.696Z,1.82
2023-02-15T10:01:11.643Z,2
2023-02-15T10:02:07.680Z,1.97
2023-02-15T10:03:10.672Z,2.04
2023-02-15T10:04:07.936Z,2.15
2023-02-15T10:05:07.743Z,2.07
2023-02-15T10:06:07.711Z,2.07
2023-02-15T10:07:07.683Z,2.1
2023-02-15T10:08:07.697Z,2.15
2023-02-15T10:09:07.709Z,2.1
2023-02-15T10:10:07.686Z,2.04
2023-02-15T10:11:08.147Z,2.16
2023-02-15T10:12:10.827Z,2.18
2023-02-15T10:13:07.725Z,2.25
2023-02-15T10:14:07.713Z,2.22
2023-02-15T10:15:07.903Z,2.18
2023-02-15T10:16:07.735Z,2.25
2023-02-15T10:17:08.010Z,2.33
2023-02-15T10:18:08.770Z,2.15
2023-02-15T10:19:07.723Z,2.22
2023-02-15T10:20:07.720Z,2.23
2023-02-15T10:21:08.467Z,2.32
2023-02-15T10:22:07.717Z,2.23
2023-02-15T10:23:07.784Z,2.37
2023-02-15T10:24:07.836Z,2.47
2023-02-15T10:25:07.781Z,2.41
2023-02-15T10:26:08.117Z,2.37
2023-02-15T10:27:07.743Z,2.36
2023-02-15T10:28:07.721Z,2.5
2023-02-15T10:29:07.716Z,2.57
2023-02-15T10:30:07.909Z,2.5
2023-02-15T10:31:08.914Z,2.46
2023-02-15T10:32:08.210Z,2.34
2023-02-15T10:33:07.811Z,2.36
2023-02-15T10:34:07.788Z,2.37
2023-02-15T10:35:07.732Z,2.28
2023-02-15T10:36:07.735Z,2.41
2023-02-15T10:37:07.631Z,2.43
2023-02-15T10:38:07.807Z,2.5
2023-02-15T10:39:07.761Z,2.57
2023-02-15T10:40:07.795Z,2.55
2023-02-15T10:41:08.248Z,2.58
2023-02-15T10:42:07.779Z,2.65
2023-02-15T10:43:07.755Z,2.57
2023-02-15T10:44:10.858Z,2.65
2023-02-15T10:45:07.753Z,2.72
2023-02-15T10:46:07.904Z,2.75
2023-02-15T10:47:07.795Z,2.77
2023-02-15T10:48:07.813Z,2.87
2023-02-15T10:49:07.760Z,2.97
2023-02-15T10:50:07.818Z,2.97
2023-02-15T10:51:08.167Z,3.18
2023-02-15T10:52:07.752Z,3.15
2023-02-15T10:53:07.831Z,3.09
2023-02-15T10:54:07.753Z,3.24
2023-02-15T10:55:10.605Z,3.19
2023-02-15T10:56:08.830Z,3.31
2023-02-15T10:57:07.961Z,3.21
2023-02-15T10:58:07.789Z,3.26
2023-02-15T10:59:07.828Z,3.45
2023-02-15T11:00:07.814Z,3.55
2023-02-15T11:01:08.668Z,3.58
2023-02-15T11:02:07.823Z,3.63
2023-02-15T11:03:07.806Z,3.61
2023-02-15T11:04:07.966Z,3.74
2023-02-15T11:05:09.092Z,3.86
2023-02-15T11:06:10.560Z,3.73
2023-02-15T11:07:07.812Z,3.64
2023-02-15T11:08:07.848Z,3.63
2023-02-15T11:09:07.962Z,3.71
2023-02-15T11:10:07.819Z,3.78
2023-02-15T11:11:08.352Z,3.74
2023-02-15T11:12:07.872Z,3.78
2023-02-15T11:13:07.815Z,3.89
2023-02-15T11:14:07.843Z,3.82
2023-02-15T11:15:07.816Z,3.89
2023-02-15T11:16:08.105Z,3.86
2023-02-15T11:17:10.907Z,3.85
2023-02-15T11:18:07.817Z,4
2023-02-15T11:19:07.849Z,4.04
2023-02-15T11:20:07.847Z,4
2023-02-15T11:21:08.384Z,4.14
2023-02-15T11:22:07.888Z,4.12
2023-02-15T11:23:07.852Z,4.13
2023-02-15T11:24:07.846Z,3.99
2023-02-15T11:25:07.886Z,4
2023-02-15T11:26:07.850Z,3.86
2023-02-15T11:27:08.009Z,3.94
2023-02-15T11:28:10.681Z,3.92
2023-02-15T11:29:07.874Z,3.86
2023-02-15T11:30:08.103Z,4.06
2023-02-15T11:31:09.017Z,3.89
2023-02-15T11:32:08.327Z,3.91
2023-02-15T11:33:09.567Z,3.85
2023-02-15T11:34:07.849Z,3.95
2023-02-15T11:35:07.852Z,3.96
2023-02-15T11:36:07.855Z,4
2023-02-15T11:37:07.937Z,3.89
2023-02-15T11:38:07.860Z,4.02
2023-02-15T11:39:10.611Z,4.09
2023-02-15T11:40:07.877Z,4.2
2023-02-15T11:41:08.397Z,4.12
2023-02-15T11:42:07.860Z,4.24
2023-02-15T11:43:07.886Z,4.2
2023-02-15T11:44:07.974Z,4.34
2023-02-15T11:45:07.920Z,4.21
2023-02-15T11:46:08.029Z,4.42
2023-02-15T11:47:07.885Z,4.39
2023-02-15T11:48:07.854Z,4.39
2023-02-15T11:49:07.878Z,4.32
2023-02-15T11:50:10.609Z,4.34
2023-02-15T11:51:08.389Z,4.45
2023-02-15T11:52:07.882Z,4.45
2023-02-15T11:53:07.894Z,4.49
2023-02-15T11:54:07.856Z,4.42
2023-02-15T11:55:10.892Z,4.52
2023-02-15T11:56:07.883Z,4.43
2023-02-15T11:57:07.932Z,4.5
2023-02-15T11:58:07.856Z,4.5
2023-02-15T11:59:07.974Z,4.6
2023-02-15T12:00:07.998Z,4.63
2023-02-15T12:01:11.232Z,4.63
2023-02-15T12:02:07.894Z,4.82
2023-02-15T12:03:08.116Z,4.79
2023-02-15T12:04:08.028Z,4.94
2023-02-15T12:05:07.886Z,4.84
2023-02-15T12:06:10.785Z,4.79
2023-02-15T12:07:07.928Z,4.86
2023-02-15T12:08:07.894Z,5.15
2023-02-15T12:09:07.908Z,5.05
2023-02-15T12:10:07.904Z,5.05
2023-02-15T12:11:08.356Z,5.04
2023-02-15T12:12:07.909Z,5.12
2023-02-15T12:13:08.061Z,4.98
2023-02-15T12:14:07.888Z,4.94
2023-02-15T12:15:07.902Z,4.95
2023-02-15T12:16:10.565Z,5.29
2023-02-15T12:17:11.484Z,5.29
2023-02-15T12:18:07.909Z,5.4
2023-02-15T12:19:07.970Z,5.41
2023-02-15T12:20:07.938Z,5.54
2023-02-15T12:21:08.237Z,5.47
2023-02-15T12:22:10.176Z,5.46
2023-02-15T12:23:08.019Z,5.51
2023-02-15T12:24:07.931Z,5.52
2023-02-15T12:25:07.762Z,5.62
2023-02-15T12:26:07.884Z,5.72
2023-02-15T12:27:07.956Z,5.72
2023-02-15T12:28:10.807Z,5.79
2023-02-15T12:29:07.777Z,5.79
2023-02-15T12:30:08.286Z,5.98
2023-02-15T12:31:08.936Z,6.17
2023-02-15T12:32:08.664Z,6.31
2023-02-15T12:33:07.924Z,6.35
2023-02-15T12:34:07.959Z,6.35
2023-02-15T12:35:07.928Z,6.38
2023-02-15T12:36:08.515Z,6.53
2023-02-15T12:37:07.945Z,6.53
2023-02-15T12:38:07.930Z,6.52
2023-02-15T12:39:10.928Z,6.52
2023-02-15T12:40:07.822Z,6.59
2023-02-15T12:41:11.076Z,6.52
2023-02-15T12:42:07.969Z,6.6
2023-02-15T12:43:13.795Z,6.64
2023-02-15T12:44:14.227Z,6.74
2023-02-15T12:45:07.976Z,6.71
2023-02-15T12:46:08.473Z,6.87
2023-02-15T12:47:08.418Z,6.9
2023-02-15T12:48:08.013Z,6.77
2023-02-15T12:49:07.958Z,6.75
2023-02-15T12:50:12.094Z,6.72
2023-02-15T12:51:08.214Z,6.77
2023-02-15T12:52:08.057Z,6.67
2023-02-15T12:53:07.969Z,6.68
2023-02-15T12:54:07.957Z,6.67
2023-02-15T12:55:08.010Z,6.59
2023-02-15T12:56:07.984Z,6.49
2023-02-15T12:57:07.992Z,6.65
2023-02-15T12:58:08.007Z,6.68
2023-02-15T12:59:08.052Z,6.56
2023-02-15T13:00:07.972Z,6.57
2023-02-15T13:01:08.625Z,6.57
2023-02-15T13:02:08.202Z,6.59
2023-02-15T13:03:07.961Z,6.71
2023-02-15T13:04:08.052Z,6.68
2023-02-15T13:05:07.946Z,6.77
2023-02-15T13:06:17.049Z,6.74
2023-02-15T13:07:07.830Z,6.71
2023-02-15T13:08:07.855Z,6.75
2023-02-15T13:09:07.974Z,6.75
2023-02-15T13:10:07.974Z,6.87
2023-02-15T13:11:11.011Z,6.86
2023-02-15T13:12:07.989Z,6.95
2023-02-15T13:13:08.018Z,7.01
2023-02-15T13:14:07.836Z,7.15
2023-02-15T13:15:08.115Z,7.14
2023-02-15T13:16:08.239Z,7.21
2023-02-15T13:17:11.966Z,7.4
2023-02-15T13:18:08.014Z,7.4
2023-02-15T13:19:08.000Z,7.41
2023-02-15T13:20:08.061Z,7.43
2023-02-15T13:21:08.614Z,7.37
2023-02-15T13:22:11.103Z,7.48